createdAt,value
2019-01-22T00:00:54.471Z,33.60
2019-01-22T00:15:51.535Z,25.02
2019-01-22T00:30:51.640Z,23.80
2019-01-22T00:45:51.390Z,28.42
2019-01-22T01:00:50.876Z,31.50
2019-01-22T01:15:51.354Z,33.55
2019-01-22T01:30:50.706Z,32.80
2019-01-22T01:45:51.085Z,32.88
2019-01-22T02:00:53.491Z,29.10
2019-01-22T04:15:53.608Z,17.48
2019-01-22T09:45:51.698Z,13.60
2019-01-22T10:00:50.999Z,12.53
2019-01-22T10:15:51.453Z,12.63
2019-01-22T10:30:51.399Z,12.18
2019-01-22T10:45:51.772Z,13.80
2019-01-22T11:00:50.275Z,12.63
2019-01-22T11:15:53.564Z,14.50
2019-01-22T11:30:51.475Z,17.05
2019-01-22T11:45:50.915Z,15.55
2019-01-22T12:00:57.424Z,14.65
2019-01-22T12:15:50.794Z,13.43
2019-01-22T12:30:50.716Z,16.12
2019-01-22T12:45:51.145Z,13.38
2019-01-22T13:00:50.927Z,16.00
2019-01-22T13:15:50.930Z,18.40
2019-01-22T13:30:50.847Z,17.12
2019-01-22T13:45:51.151Z,15.10
2019-01-22T14:15:51.190Z,14.47
2019-01-22T14:30:51.084Z,18.60
2019-01-22T14:45:51.612Z,21.68
2019-01-22T15:00:53.030Z,19.05
2019-01-22T15:15:51.283Z,13.85
2019-01-22T15:30:51.195Z,16.40
2019-01-22T15:45:50.686Z,14.13
2019-01-22T16:00:51.101Z,14.93
2019-01-22T16:15:51.451Z,16.62
2019-01-22T16:30:53.193Z,23.55
2019-01-22T16:45:51.180Z,19.52
2019-01-22T17:00:51.001Z,24.02
2019-01-22T17:15:51.347Z,28.85
2019-01-22T17:30:50.687Z,28.12
2019-01-22T17:45:54.169Z,27.75
2019-01-22T18:00:57.241Z,28.32
2019-01-22T18:15:55.792Z,29.00
2019-01-22T18:30:54.348Z,29.05
2019-01-22T18:45:51.282Z,28.00
2019-01-22T19:00:51.752Z,23.60
2019-01-22T19:15:53.309Z,25.48
2019-01-22T19:30:53.705Z,22.85
2019-01-22T19:45:55.226Z,26.37
2019-01-22T20:00:52.911Z,22.27
2019-01-22T20:15:53.428Z,19.73
2019-01-22T20:30:53.387Z,18.85
2019-01-22T20:45:52.764Z,16.17
2019-01-22T21:00:50.915Z,25.65
2019-01-22T21:15:50.707Z,19.77
2019-01-22T21:30:53.637Z,19.00
2019-01-22T21:45:50.955Z,20.88
2019-01-22T22:00:50.951Z,18.80
2019-01-22T22:15:51.592Z,16.07
2019-01-22T22:30:50.761Z,14.15
2019-01-22T22:45:51.133Z,17.02
2019-01-22T23:15:51.158Z,12.68
2019-01-22T23:30:50.947Z,13.93
2019-01-22T23:45:51.397Z,16.80
